sensor_id;sensor_type;location;lat;lon;timestamp;P1;durP1;ratioP1;P2;durP2;ratioP2
7941;SDS011;4016;50.758;7.150;2022-10-17T00:02:48;5.33;;;4.30;;
7941;SDS011;4016;50.758;7.150;2022-10-17T00:07:49;5.70;;;4.20;;
7941;SDS011;4016;50.758;7.150;2022-10-17T00:12:50;6.93;;;4.63;;
7941;SDS011;4016;50.758;7.150;2022-10-17T00:17:51;4.90;;;4.50;;
7941;SDS011;4016;50.758;7.150;2022-10-17T00:22:51;6.50;;;4.83;;
7941;SDS011;4016;50.758;7.150;2022-10-17T00:27:52;5.20;;;4.70;;
7941;SDS011;4016;50.758;7.150;2022-10-17T00:32:52;8.27;;;4.60;;
7941;SDS011;4016;50.758;7.150;2022-10-17T00:37:53;4.67;;;4.17;;
7941;SDS011;4016;50.758;7.150;2022-10-17T00:42:53;4.97;;;4.47;;
7941;SDS011;4016;50.758;7.150;2022-10-17T00:47:55;5.83;;;4.60;;
7941;SDS011;4016;50.758;7.150;2022-10-17T00:53:00;4.77;;;4.27;;
7941;SDS011;4016;50.758;7.150;2022-10-17T00:58:02;7.20;;;4.33;;
7941;SDS011;4016;50.758;7.150;2022-10-17T01:03:03;5.40;;;4.90;;
7941;SDS011;4016;50.758;7.150;2022-10-17T01:08:04;6.50;;;4.53;;
7941;SDS011;4016;50.758;7.150;2022-10-17T01:13:07;4.70;;;4.23;;
7941;SDS011;4016;50.758;7.150;2022-10-17T01:18:27;5.20;;;4.70;;
7941;SDS011;4016;50.758;7.150;2022-10-17T01:34:33;4.57;;;4.17;;
7941;SDS011;4016;50.758;7.150;2022-10-17T01:49:59;6.20;;;4.50;;
7941;SDS011;4016;50.758;7.150;2022-10-17T01:55:07;4.43;;;4.03;;
7941;SDS011;4016;50.758;7.150;2022-10-17T02:00:12;5.30;;;4.40;;
7941;SDS011;4016;50.758;7.150;2022-10-17T02:05:18;4.43;;;3.97;;
7941;SDS011;4016;50.758;7.150;2022-10-17T02:10:44;4.83;;;4.37;;
7941;SDS011;4016;50.758;7.150;2022-10-17T02:26:12;5.33;;;4.03;;
7941;SDS011;4016;50.758;7.150;2022-10-17T02:31:28;6.20;;;4.50;;
7941;SDS011;4016;50.758;7.150;2022-10-17T02:36:34;7.60;;;4.10;;
7941;SDS011;4016;50.758;7.150;2022-10-17T02:41:37;5.13;;;4.53;;
7941;SDS011;4016;50.758;7.150;2022-10-17T02:46:39;4.53;;;4.13;;
7941;SDS011;4016;50.758;7.150;2022-10-17T02:51:43;5.60;;;3.80;;
7941;SDS011;4016;50.758;7.150;2022-10-17T02:57:05;5.93;;;4.20;;
7941;SDS011;4016;50.758;7.150;2022-10-17T03:02:09;4.73;;;3.73;;
7941;SDS011;4016;50.758;7.150;2022-10-17T03:07:10;4.07;;;3.73;;
7941;SDS011;4016;50.758;7.150;2022-10-17T03:12:11;4.40;;;4.00;;
7941;SDS011;4016;50.758;7.150;2022-10-17T03:17:11;4.57;;;3.90;;
7941;SDS011;4016;50.758;7.150;2022-10-17T03:22:11;4.87;;;4.03;;
7941;SDS011;4016;50.758;7.150;2022-10-17T03:27:12;4.03;;;3.67;;
7941;SDS011;4016;50.758;7.150;2022-10-17T03:32:12;4.30;;;3.90;;
7941;SDS011;4016;50.758;7.150;2022-10-17T03:37:13;4.50;;;3.90;;
7941;SDS011;4016;50.758;7.150;2022-10-17T03:42:13;4.07;;;3.70;;
7941;SDS011;4016;50.758;7.150;2022-10-17T03:47:13;4.27;;;3.93;;
7941;SDS011;4016;50.758;7.150;2022-10-17T03:52:14;4.50;;;4.10;;
7941;SDS011;4016;50.758;7.150;2022-10-17T03:57:14;4.27;;;3.87;;
7941;SDS011;4016;50.758;7.150;2022-10-17T04:02:14;4.40;;;4.00;;
7941;SDS011;4016;50.758;7.150;2022-10-17T04:07:15;4.60;;;3.60;;
7941;SDS011;4016;50.758;7.150;2022-10-17T04:12:15;5.47;;;3.93;;
7941;SDS011;4016;50.758;7.150;2022-10-17T04:17:15;6.47;;;3.67;;
7941;SDS011;4016;50.758;7.150;2022-10-17T04:22:16;7.00;;;3.80;;
7941;SDS011;4016;50.758;7.150;2022-10-17T04:27:16;4.87;;;4.20;;
7941;SDS011;4016;50.758;7.150;2022-10-17T04:32:16;4.17;;;3.77;;
7941;SDS011;4016;50.758;7.150;2022-10-17T04:37:17;4.37;;;3.90;;
7941;SDS011;4016;50.758;7.150;2022-10-17T04:42:17;5.60;;;3.93;;
7941;SDS011;4016;50.758;7.150;2022-10-17T04:47:17;4.93;;;4.17;;
7941;SDS011;4016;50.758;7.150;2022-10-17T04:52:18;6.50;;;4.13;;
7941;SDS011;4016;50.758;7.150;2022-10-17T04:57:18;4.20;;;3.50;;
7941;SDS011;4016;50.758;7.150;2022-10-17T05:02:19;4.93;;;3.70;;
7941;SDS011;4016;50.758;7.150;2022-10-17T05:07:19;3.77;;;3.47;;
7941;SDS011;4016;50.758;7.150;2022-10-17T05:12:19;7.00;;;3.90;;
7941;SDS011;4016;50.758;7.150;2022-10-17T05:17:20;4.80;;;3.97;;
7941;SDS011;4016;50.758;7.150;2022-10-17T05:22:20;7.57;;;4.13;;
7941;SDS011;4016;50.758;7.150;2022-10-17T05:27:20;4.30;;;3.90;;
7941;SDS011;4016;50.758;7.150;2022-10-17T05:32:21;4.80;;;4.30;;
7941;SDS011;4016;50.758;7.150;2022-10-17T05:37:21;4.03;;;3.63;;
7941;SDS011;4016;50.758;7.150;2022-10-17T05:42:21;4.90;;;3.77;;
7941;SDS011;4016;50.758;7.150;2022-10-17T05:47:22;5.03;;;4.07;;
7941;SDS011;4016;50.758;7.150;2022-10-17T05:52:22;3.70;;;3.40;;
7941;SDS011;4016;50.758;7.150;2022-10-17T05:57:24;5.13;;;3.93;;
7941;SDS011;4016;50.758;7.150;2022-10-17T06:02:25;4.23;;;3.80;;
7941;SDS011;4016;50.758;7.150;2022-10-17T06:07:25;4.47;;;4.07;;
7941;SDS011;4016;50.758;7.150;2022-10-17T06:12:26;4.97;;;4.47;;
7941;SDS011;4016;50.758;7.150;2022-10-17T06:17:26;6.57;;;4.47;;
7941;SDS011;4016;50.758;7.150;2022-10-17T06:22:28;4.40;;;4.00;;
7941;SDS011;4016;50.758;7.150;2022-10-17T06:27:28;4.40;;;4.00;;
7941;SDS011;4016;50.758;7.150;2022-10-17T06:32:28;4.20;;;3.80;;
7941;SDS011;4016;50.758;7.150;2022-10-17T06:37:29;5.30;;;4.40;;
7941;SDS011;4016;50.758;7.150;2022-10-17T06:42:31;5.03;;;4.43;;
7941;SDS011;4016;50.758;7.150;2022-10-17T06:47:33;4.87;;;4.37;;
7941;SDS011;4016;50.758;7.150;2022-10-17T06:52:34;4.70;;;3.97;;
7941;SDS011;4016;50.758;7.150;2022-10-17T06:57:34;4.87;;;4.37;;
7941;SDS011;4016;50.758;7.150;2022-10-17T07:02:34;4.50;;;3.93;;
7941;SDS011;4016;50.758;7.150;2022-10-17T07:07:35;4.43;;;3.93;;
7941;SDS011;4016;50.758;7.150;2022-10-17T07:12:36;5.57;;;4.47;;
7941;SDS011;4016;50.758;7.150;2022-10-17T07:17:36;5.80;;;4.30;;
7941;SDS011;4016;50.758;7.150;2022-10-17T07:22:36;4.67;;;4.17;;
7941;SDS011;4016;50.758;7.150;2022-10-17T07:27:37;5.63;;;4.27;;
7941;SDS011;4016;50.758;7.150;2022-10-17T07:32:37;5.30;;;4.50;;
7941;SDS011;4016;50.758;7.150;2022-10-17T07:37:38;5.87;;;4.60;;
7941;SDS011;4016;50.758;7.150;2022-10-17T07:42:38;6.50;;;4.23;;
7941;SDS011;4016;50.758;7.150;2022-10-17T07:47:38;4.30;;;3.90;;
7941;SDS011;4016;50.758;7.150;2022-10-17T07:52:39;6.17;;;4.33;;
7941;SDS011;4016;50.758;7.150;2022-10-17T07:57:42;4.53;;;4.13;;
7941;SDS011;4016;50.758;7.150;2022-10-17T08:02:42;5.33;;;3.80;;
7941;SDS011;4016;50.758;7.150;2022-10-17T08:07:42;5.23;;;4.07;;
7941;SDS011;4016;50.758;7.150;2022-10-17T08:12:43;4.23;;;3.80;;
7941;SDS011;4016;50.758;7.150;2022-10-17T08:17:43;7.00;;;3.95;;
7941;SDS011;4016;50.758;7.150;2022-10-17T08:22:49;6.38;;;4.00;;
7941;SDS011;4016;50.758;7.150;2022-10-17T08:27:50;4.65;;;4.07;;
7941;SDS011;4016;50.758;7.150;2022-10-17T08:32:51;5.90;;;3.53;;
7941;SDS011;4016;50.758;7.150;2022-10-17T08:37:51;4.90;;;3.47;;
7941;SDS011;4016;50.758;7.150;2022-10-17T08:48:32;3.92;;;3.58;;
7941;SDS011;4016;50.758;7.150;2022-10-17T08:53:40;5.40;;;3.65;;
7941;SDS011;4016;50.758;7.150;2022-10-17T08:58:54;4.85;;;4.03;;
7941;SDS011;4016;50.758;7.150;2022-10-17T09:09:13;3.95;;;3.63;;
7941;SDS011;4016;50.758;7.150;2022-10-17T09:19:43;4.00;;;3.28;;
7941;SDS011;4016;50.758;7.150;2022-10-17T09:24:59;3.50;;;3.20;;
7941;SDS011;4016;50.758;7.150;2022-10-17T09:35:21;3.85;;;3.55;;
7941;SDS011;4016;50.758;7.150;2022-10-17T09:40:24;4.78;;;3.35;;
7941;SDS011;4016;50.758;7.150;2022-10-17T09:45:27;5.35;;;3.50;;
7941;SDS011;4016;50.758;7.150;2022-10-17T09:50:32;4.15;;;3.75;;
7941;SDS011;4016;50.758;7.150;2022-10-17T09:55:37;4.65;;;3.80;;
7941;SDS011;4016;50.758;7.150;2022-10-17T10:00:43;6.97;;;3.92;;
7941;SDS011;4016;50.758;7.150;2022-10-17T10:11:00;5.50;;;3.15;;
7941;SDS011;4016;50.758;7.150;2022-10-17T10:21:16;4.40;;;3.58;;
7941;SDS011;4016;50.758;7.150;2022-10-17T10:26:20;4.18;;;3.47;;
7941;SDS011;4016;50.758;7.150;2022-10-17T10:31:25;4.05;;;3.47;;
7941;SDS011;4016;50.758;7.150;2022-10-17T10:36:51;3.42;;;3.00;;
7941;SDS011;4016;50.758;7.150;2022-10-17T10:42:00;4.03;;;3.65;;
7941;SDS011;4016;50.758;7.150;2022-10-17T10:47:06;3.58;;;3.28;;
7941;SDS011;4016;50.758;7.150;2022-10-17T10:52:20;3.58;;;3.28;;
7941;SDS011;4016;50.758;7.150;2022-10-17T10:57:28;3.45;;;3.15;;
7941;SDS011;4016;50.758;7.150;2022-10-17T11:02:34;3.78;;;3.35;;
7941;SDS011;4016;50.758;7.150;2022-10-17T11:07:45;4.28;;;3.50;;
7941;SDS011;4016;50.758;7.150;2022-10-17T11:13:08;4.00;;;3.40;;
7941;SDS011;4016;50.758;7.150;2022-10-17T11:23:38;3.72;;;3.42;;
7941;SDS011;4016;50.758;7.150;2022-10-17T11:28:41;4.10;;;3.80;;
7941;SDS011;4016;50.758;7.150;2022-10-17T11:38:58;3.25;;;2.95;;
7941;SDS011;4016;50.758;7.150;2022-10-17T11:44:13;3.88;;;3.50;;
7941;SDS011;4016;50.758;7.150;2022-10-17T11:49:19;4.43;;;3.40;;
7941;SDS011;4016;50.758;7.150;2022-10-17T11:54:24;3.42;;;3.13;;
7941;SDS011;4016;50.758;7.150;2022-10-17T12:11:13;5.95;;;3.42;;
7941;SDS011;4016;50.758;7.150;2022-10-17T12:15:51;3.28;;;2.97;;
7941;SDS011;4016;50.758;7.150;2022-10-17T12:20:55;3.80;;;3.50;;
7941;SDS011;4016;50.758;7.150;2022-10-17T12:26:00;3.60;;;3.30;;
7941;SDS011;4016;50.758;7.150;2022-10-17T12:41:52;4.25;;;3.47;;
7941;SDS011;4016;50.758;7.150;2022-10-17T12:52:04;5.32;;;3.40;;
7941;SDS011;4016;50.758;7.150;2022-10-17T12:57:12;5.70;;;3.38;;
7941;SDS011;4016;50.758;7.150;2022-10-17T13:02:23;4.40;;;3.53;;
7941;SDS011;4016;50.758;7.150;2022-10-17T13:07:26;3.17;;;2.90;;
7941;SDS011;4016;50.758;7.150;2022-10-17T13:12:27;4.05;;;3.42;;
7941;SDS011;4016;50.758;7.150;2022-10-17T13:17:28;3.65;;;3.25;;
7941;SDS011;4016;50.758;7.150;2022-10-17T13:22:30;3.60;;;3.30;;
7941;SDS011;4016;50.758;7.150;2022-10-17T13:27:32;3.92;;;3.53;;
7941;SDS011;4016;50.758;7.150;2022-10-17T13:32:35;4.78;;;3.30;;
7941;SDS011;4016;50.758;7.150;2022-10-17T13:37:38;3.72;;;3.22;;
7941;SDS011;4016;50.758;7.150;2022-10-17T13:42:40;3.47;;;3.17;;
7941;SDS011;4016;50.758;7.150;2022-10-17T13:47:41;3.53;;;3.05;;
7941;SDS011;4016;50.758;7.150;2022-10-17T13:52:41;5.97;;;3.63;;
7941;SDS011;4016;50.758;7.150;2022-10-17T13:57:42;3.80;;;3.45;;
7941;SDS011;4016;50.758;7.150;2022-10-17T14:02:42;3.83;;;3.40;;
7941;SDS011;4016;50.758;7.150;2022-10-17T14:12:53;6.50;;;4.40;;
7941;SDS011;4016;50.758;7.150;2022-10-17T14:17:56;3.88;;;3.58;;
7941;SDS011;4016;50.758;7.150;2022-10-17T14:22:59;4.68;;;3.40;;
7941;SDS011;4016;50.758;7.150;2022-10-17T14:33:04;4.28;;;3.42;;
7941;SDS011;4016;50.758;7.150;2022-10-17T14:38:11;3.58;;;3.25;;
7941;SDS011;4016;50.758;7.150;2022-10-17T14:43:16;6.15;;;3.33;;
7941;SDS011;4016;50.758;7.150;2022-10-17T14:48:22;3.83;;;2.90;;
7941;SDS011;4016;50.758;7.150;2022-10-17T14:53:23;3.75;;;3.08;;
7941;SDS011;4016;50.758;7.150;2022-10-17T14:58:31;4.85;;;2.80;;
7941;SDS011;4016;50.758;7.150;2022-10-17T15:03:32;3.22;;;2.92;;
7941;SDS011;4016;50.758;7.150;2022-10-17T15:08:32;3.38;;;2.92;;
7941;SDS011;4016;50.758;7.150;2022-10-17T15:13:33;5.00;;;2.92;;
7941;SDS011;4016;50.758;7.150;2022-10-17T15:18:33;4.32;;;3.08;;
7941;SDS011;4016;50.758;7.150;2022-10-17T15:23:34;4.45;;;2.85;;
7941;SDS011;4016;50.758;7.150;2022-10-17T15:28:34;4.47;;;3.13;;
7941;SDS011;4016;50.758;7.150;2022-10-17T15:33:34;2.65;;;2.45;;
7941;SDS011;4016;50.758;7.150;2022-10-17T15:38:35;5.35;;;2.97;;
7941;SDS011;4016;50.758;7.150;2022-10-17T15:43:35;2.90;;;2.70;;
7941;SDS011;4016;50.758;7.150;2022-10-17T15:48:35;3.63;;;2.47;;
7941;SDS011;4016;50.758;7.150;2022-10-17T15:53:36;3.20;;;2.90;;
7941;SDS011;4016;50.758;7.150;2022-10-17T15:58:37;3.33;;;2.92;;
7941;SDS011;4016;50.758;7.150;2022-10-17T16:03:39;4.97;;;2.92;;
7941;SDS011;4016;50.758;7.150;2022-10-17T16:08:40;3.33;;;2.72;;
7941;SDS011;4016;50.758;7.150;2022-10-17T16:13:40;4.03;;;3.30;;
7941;SDS011;4016;50.758;7.150;2022-10-17T16:18:43;3.33;;;3.03;;
7941;SDS011;4016;50.758;7.150;2022-10-17T16:23:43;3.97;;;2.83;;
7941;SDS011;4016;50.758;7.150;2022-10-17T16:28:44;3.83;;;3.10;;
7941;SDS011;4016;50.758;7.150;2022-10-17T16:33:45;5.30;;;3.63;;
7941;SDS011;4016;50.758;7.150;2022-10-17T16:38:47;3.60;;;3.13;;
7941;SDS011;4016;50.758;7.150;2022-10-17T16:43:50;3.47;;;3.17;;
7941;SDS011;4016;50.758;7.150;2022-10-17T16:48:52;4.85;;;3.22;;
7941;SDS011;4016;50.758;7.150;2022-10-17T16:53:53;4.10;;;3.42;;
7941;SDS011;4016;50.758;7.150;2022-10-17T16:58:55;4.63;;;3.70;;
7941;SDS011;4016;50.758;7.150;2022-10-17T17:03:56;4.35;;;3.35;;
7941;SDS011;4016;50.758;7.150;2022-10-17T17:08:56;6.78;;;4.35;;
7941;SDS011;4016;50.758;7.150;2022-10-17T17:13:57;4.68;;;3.65;;
7941;SDS011;4016;50.758;7.150;2022-10-17T17:19:01;4.63;;;4.15;;
7941;SDS011;4016;50.758;7.150;2022-10-17T17:24:03;6.70;;;4.28;;
7941;SDS011;4016;50.758;7.150;2022-10-17T17:29:04;5.00;;;4.05;;
7941;SDS011;4016;50.758;7.150;2022-10-17T17:34:04;4.70;;;3.88;;
7941;SDS011;4016;50.758;7.150;2022-10-17T17:39:06;5.70;;;3.50;;
7941;SDS011;4016;50.758;7.150;2022-10-17T17:44:09;5.03;;;3.55;;
7941;SDS011;4016;50.758;7.150;2022-10-17T17:49:12;3.60;;;3.30;;
7941;SDS011;4016;50.758;7.150;2022-10-17T17:54:13;6.00;;;3.90;;
7941;SDS011;4016;50.758;7.150;2022-10-17T17:59:14;4.10;;;3.70;;
7941;SDS011;4016;50.758;7.150;2022-10-17T18:04:14;3.97;;;3.38;;
7941;SDS011;4016;50.758;7.150;2022-10-17T18:09:17;4.15;;;3.63;;
7941;SDS011;4016;50.758;7.150;2022-10-17T18:14:19;4.78;;;4.00;;
7941;SDS011;4016;50.758;7.150;2022-10-17T18:19:22;3.53;;;3.22;;
7941;SDS011;4016;50.758;7.150;2022-10-17T18:24:23;3.72;;;3.42;;
7941;SDS011;4016;50.758;7.150;2022-10-17T18:29:24;3.78;;;3.20;;
7941;SDS011;4016;50.758;7.150;2022-10-17T18:34:25;3.42;;;3.13;;
7941;SDS011;4016;50.758;7.150;2022-10-17T18:39:26;4.63;;;3.38;;
7941;SDS011;4016;50.758;7.150;2022-10-17T18:44:26;4.47;;;3.63;;
7941;SDS011;4016;50.758;7.150;2022-10-17T18:49:27;4.53;;;3.88;;
7941;SDS011;4016;50.758;7.150;2022-10-17T18:54:27;3.50;;;3.20;;
7941;SDS011;4016;50.758;7.150;2022-10-17T18:59:31;3.75;;;3.35;;
7941;SDS011;4016;50.758;7.150;2022-10-17T19:04:31;4.80;;;3.67;;
7941;SDS011;4016;50.758;7.150;2022-10-17T19:09:32;3.97;;;3.58;;
7941;SDS011;4016;50.758;7.150;2022-10-17T19:14:32;3.80;;;3.50;;
7941;SDS011;4016;50.758;7.150;2022-10-17T19:19:33;4.07;;;3.67;;
7941;SDS011;4016;50.758;7.150;2022-10-17T19:24:34;3.88;;;3.28;;
7941;SDS011;4016;50.758;7.150;2022-10-17T19:29:34;4.72;;;3.80;;
7941;SDS011;4016;50.758;7.150;2022-10-17T19:34:35;4.45;;;4.05;;
7941;SDS011;4016;50.758;7.150;2022-10-17T19:39:35;4.65;;;4.10;;
7941;SDS011;4016;50.758;7.150;2022-10-17T19:44:36;4.20;;;3.58;;
7941;SDS011;4016;50.758;7.150;2022-10-17T19:49:37;4.32;;;3.92;;
7941;SDS011;4016;50.758;7.150;2022-10-17T19:54:37;4.43;;;4.03;;
7941;SDS011;4016;50.758;7.150;2022-10-17T19:59:39;5.15;;;4.10;;
7941;SDS011;4016;50.758;7.150;2022-10-17T20:04:40;4.13;;;3.72;;
7941;SDS011;4016;50.758;7.150;2022-10-17T20:09:40;3.75;;;3.35;;
7941;SDS011;4016;50.758;7.150;2022-10-17T20:14:40;5.13;;;3.67;;
7941;SDS011;4016;50.758;7.150;2022-10-17T20:19:41;4.13;;;3.72;;
7941;SDS011;4016;50.758;7.150;2022-10-17T20:24:41;5.15;;;4.38;;
7941;SDS011;4016;50.758;7.150;2022-10-17T20:29:42;4.28;;;3.88;;
7941;SDS011;4016;50.758;7.150;2022-10-17T20:34:42;5.22;;;4.72;;
7941;SDS011;4016;50.758;7.150;2022-10-17T20:39:43;4.97;;;4.28;;
7941;SDS011;4016;50.758;7.150;2022-10-17T20:44:43;5.90;;;4.10;;
7941;SDS011;4016;50.758;7.150;2022-10-17T20:49:44;5.00;;;4.55;;
7941;SDS011;4016;50.758;7.150;2022-10-17T20:54:44;5.35;;;4.65;;
7941;SDS011;4016;50.758;7.150;2022-10-17T20:59:45;6.50;;;4.57;;
7941;SDS011;4016;50.758;7.150;2022-10-17T21:04:46;6.20;;;4.35;;
7941;SDS011;4016;50.758;7.150;2022-10-17T21:09:47;5.97;;;5.30;;
7941;SDS011;4016;50.758;7.150;2022-10-17T21:14:47;5.40;;;4.88;;
7941;SDS011;4016;50.758;7.150;2022-10-17T21:19:49;6.40;;;4.60;;
7941;SDS011;4016;50.758;7.150;2022-10-17T21:24:49;5.60;;;4.63;;
7941;SDS011;4016;50.758;7.150;2022-10-17T21:29:49;4.72;;;4.32;;
7941;SDS011;4016;50.758;7.150;2022-10-17T21:34:50;5.30;;;4.80;;
7941;SDS011;4016;50.758;7.150;2022-10-17T21:39:51;6.80;;;5.72;;
7941;SDS011;4016;50.758;7.150;2022-10-17T21:44:51;6.97;;;4.67;;
7941;SDS011;4016;50.758;7.150;2022-10-17T21:49:51;5.73;;;4.50;;
7941;SDS011;4016;50.758;7.150;2022-10-17T21:54:52;4.93;;;4.40;;
7941;SDS011;4016;50.758;7.150;2022-10-17T21:59:52;5.77;;;4.67;;
7941;SDS011;4016;50.758;7.150;2022-10-17T22:04:52;5.43;;;4.70;;
7941;SDS011;4016;50.758;7.150;2022-10-17T22:09:53;5.10;;;4.33;;
7941;SDS011;4016;50.758;7.150;2022-10-17T22:14:53;5.30;;;4.20;;
7941;SDS011;4016;50.758;7.150;2022-10-17T22:19:53;6.00;;;4.90;;
7941;SDS011;4016;50.758;7.150;2022-10-17T22:24:54;5.10;;;4.40;;
7941;SDS011;4016;50.758;7.150;2022-10-17T22:29:54;6.00;;;5.40;;
7941;SDS011;4016;50.758;7.150;2022-10-17T22:34:55;5.97;;;5.40;;
7941;SDS011;4016;50.758;7.150;2022-10-17T22:39:55;5.13;;;4.63;;
7941;SDS011;4016;50.758;7.150;2022-10-17T22:44:56;6.33;;;5.30;;
7941;SDS011;4016;50.758;7.150;2022-10-17T22:49:56;6.43;;;5.40;;
7941;SDS011;4016;50.758;7.150;2022-10-17T22:54:56;5.80;;;4.53;;
7941;SDS011;4016;50.758;7.150;2022-10-17T22:59:57;4.90;;;4.50;;
7941;SDS011;4016;50.758;7.150;2022-10-17T23:04:58;5.67;;;4.70;;
7941;SDS011;4016;50.758;7.150;2022-10-17T23:09:59;5.03;;;4.20;;
7941;SDS011;4016;50.758;7.150;2022-10-17T23:14:59;4.83;;;4.30;;
7941;SDS011;4016;50.758;7.150;2022-10-17T23:19:59;5.20;;;4.13;;
7941;SDS011;4016;50.758;7.150;2022-10-17T23:25:00;5.73;;;4.87;;
7941;SDS011;4016;50.758;7.150;2022-10-17T23:30:00;7.97;;;4.97;;
7941;SDS011;4016;50.758;7.150;2022-10-17T23:35:02;6.20;;;4.63;;
7941;SDS011;4016;50.758;7.150;2022-10-17T23:40:03;5.07;;;4.57;;
7941;SDS011;4016;50.758;7.150;2022-10-17T23:45:05;7.40;;;5.00;;
7941;SDS011;4016;50.758;7.150;2022-10-17T23:50:06;6.17;;;5.03;;
7941;SDS011;4016;50.758;7.150;2022-10-17T23:55:07;5.83;;;5.00;;
